sensor_id;sensor_type;location;lat;lon;timestamp;P1;durP1;ratioP1;P2;durP2;ratioP2
21539;SDS011;10931;52.164;5.518;2023-05-10T00:02:24;0.60;;;0.60;;
21539;SDS011;10931;52.164;5.518;2023-05-10T00:04:50;1.02;;;0.75;;
21539;SDS011;10931;52.164;5.518;2023-05-10T00:07:16;0.52;;;0.50;;
21539;SDS011;10931;52.164;5.518;2023-05-10T00:09:44;0.75;;;0.50;;
21539;SDS011;10931;52.164;5.518;2023-05-10T00:12:10;0.40;;;0.40;;
21539;SDS011;10931;52.164;5.518;2023-05-10T00:14:36;0.80;;;0.50;;
21539;SDS011;10931;52.164;5.518;2023-05-10T00:17:09;0.70;;;0.60;;
21539;SDS011;10931;52.164;5.518;2023-05-10T00:19:35;0.65;;;0.52;;
21539;SDS011;10931;52.164;5.518;2023-05-10T00:22:02;0.70;;;0.70;;
21539;SDS011;10931;52.164;5.518;2023-05-10T00:24:28;0.77;;;0.60;;
21539;SDS011;10931;52.164;5.518;2023-05-10T00:26:53;0.50;;;0.40;;
21539;SDS011;10931;52.164;5.518;2023-05-10T00:29:19;1.15;;;0.70;;
21539;SDS011;10931;52.164;5.518;2023-05-10T00:31:45;0.60;;;0.43;;
21539;SDS011;10931;52.164;5.518;2023-05-10T00:34:18;1.38;;;0.60;;
21539;SDS011;10931;52.164;5.518;2023-05-10T00:36:43;0.57;;;0.45;;
21539;SDS011;10931;52.164;5.518;2023-05-10T00:39:09;0.55;;;0.52;;
21539;SDS011;10931;52.164;5.518;2023-05-10T00:41:35;0.68;;;0.50;;
21539;SDS011;10931;52.164;5.518;2023-05-10T00:44:01;0.68;;;0.60;;
21539;SDS011;10931;52.164;5.518;2023-05-10T00:48:59;1.20;;;0.60;;
21539;SDS011;10931;52.164;5.518;2023-05-10T00:51:25;0.70;;;0.60;;
21539;SDS011;10931;52.164;5.518;2023-05-10T00:53:53;2.67;;;0.50;;
21539;SDS011;10931;52.164;5.518;2023-05-10T00:56:20;0.70;;;0.57;;
21539;SDS011;10931;52.164;5.518;2023-05-10T00:58:48;0.77;;;0.70;;
21539;SDS011;10931;52.164;5.518;2023-05-10T01:01:14;1.67;;;0.60;;
21539;SDS011;10931;52.164;5.518;2023-05-10T01:03:40;0.60;;;0.50;;
21539;SDS011;10931;52.164;5.518;2023-05-10T01:06:07;1.17;;;0.60;;
21539;SDS011;10931;52.164;5.518;2023-05-10T01:08:34;1.02;;;0.70;;
21539;SDS011;10931;52.164;5.518;2023-05-10T01:11:00;1.05;;;0.75;;
21539;SDS011;10931;52.164;5.518;2023-05-10T01:13:29;0.70;;;0.70;;
21539;SDS011;10931;52.164;5.518;2023-05-10T01:16:04;0.63;;;0.60;;
21539;SDS011;10931;52.164;5.518;2023-05-10T01:18:35;1.25;;;0.80;;
21539;SDS011;10931;52.164;5.518;2023-05-10T01:21:11;1.00;;;0.80;;
21539;SDS011;10931;52.164;5.518;2023-05-10T01:27:02;1.10;;;0.70;;
21539;SDS011;10931;52.164;5.518;2023-05-10T01:30:05;1.15;;;0.75;;
21539;SDS011;10931;52.164;5.518;2023-05-10T01:32:46;1.25;;;0.75;;
21539;SDS011;10931;52.164;5.518;2023-05-10T01:35:26;1.48;;;0.80;;
21539;SDS011;10931;52.164;5.518;2023-05-10T01:38:22;1.55;;;1.00;;
21539;SDS011;10931;52.164;5.518;2023-05-10T01:43:26;1.52;;;0.70;;
21539;SDS011;10931;52.164;5.518;2023-05-10T01:46:04;1.02;;;0.85;;
21539;SDS011;10931;52.164;5.518;2023-05-10T01:48:46;0.82;;;0.55;;
21539;SDS011;10931;52.164;5.518;2023-05-10T01:51:17;1.63;;;0.90;;
21539;SDS011;10931;52.164;5.518;2023-05-10T01:54:01;1.10;;;0.70;;
21539;SDS011;10931;52.164;5.518;2023-05-10T01:56:31;1.23;;;0.90;;
21539;SDS011;10931;52.164;5.518;2023-05-10T01:58:59;0.85;;;0.68;;
21539;SDS011;10931;52.164;5.518;2023-05-10T02:01:29;0.95;;;0.90;;
21539;SDS011;10931;52.164;5.518;2023-05-10T02:04:07;1.38;;;0.80;;
21539;SDS011;10931;52.164;5.518;2023-05-10T02:06:34;0.70;;;0.60;;
21539;SDS011;10931;52.164;5.518;2023-05-10T02:09:03;1.23;;;1.08;;
21539;SDS011;10931;52.164;5.518;2023-05-10T02:11:30;1.15;;;0.70;;
21539;SDS011;10931;52.164;5.518;2023-05-10T02:13:57;1.17;;;0.95;;
21539;SDS011;10931;52.164;5.518;2023-05-10T02:16:24;0.60;;;0.60;;
21539;SDS011;10931;52.164;5.518;2023-05-10T02:18:52;1.52;;;0.95;;
21539;SDS011;10931;52.164;5.518;2023-05-10T02:21:20;1.17;;;0.80;;
21539;SDS011;10931;52.164;5.518;2023-05-10T02:23:48;1.38;;;0.85;;
21539;SDS011;10931;52.164;5.518;2023-05-10T02:26:17;1.40;;;1.00;;
21539;SDS011;10931;52.164;5.518;2023-05-10T02:28:46;1.63;;;0.88;;
21539;SDS011;10931;52.164;5.518;2023-05-10T02:31:12;1.38;;;0.90;;
21539;SDS011;10931;52.164;5.518;2023-05-10T02:33:40;0.98;;;0.80;;
21539;SDS011;10931;52.164;5.518;2023-05-10T02:36:07;2.28;;;0.80;;
21539;SDS011;10931;52.164;5.518;2023-05-10T02:38:36;1.33;;;0.93;;
21539;SDS011;10931;52.164;5.518;2023-05-10T02:41:12;0.88;;;0.73;;
21539;SDS011;10931;52.164;5.518;2023-05-10T02:43:43;1.75;;;1.00;;
21539;SDS011;10931;52.164;5.518;2023-05-10T02:46:25;1.38;;;0.85;;
21539;SDS011;10931;52.164;5.518;2023-05-10T02:48:53;1.25;;;0.90;;
21539;SDS011;10931;52.164;5.518;2023-05-10T02:51:19;2.15;;;1.23;;
21539;SDS011;10931;52.164;5.518;2023-05-10T02:53:48;1.35;;;0.90;;
21539;SDS011;10931;52.164;5.518;2023-05-10T02:56:20;1.55;;;0.95;;
21539;SDS011;10931;52.164;5.518;2023-05-10T02:58:50;1.17;;;0.80;;
21539;SDS011;10931;52.164;5.518;2023-05-10T03:01:17;1.45;;;0.98;;
21539;SDS011;10931;52.164;5.518;2023-05-10T03:03:42;1.08;;;0.95;;
21539;SDS011;10931;52.164;5.518;2023-05-10T03:06:09;0.98;;;0.80;;
21539;SDS011;10931;52.164;5.518;2023-05-10T03:08:35;1.50;;;1.00;;
21539;SDS011;10931;52.164;5.518;2023-05-10T03:11:09;1.17;;;0.98;;
21539;SDS011;10931;52.164;5.518;2023-05-10T03:13:53;1.40;;;0.93;;
21539;SDS011;10931;52.164;5.518;2023-05-10T03:16:54;1.42;;;0.98;;
21539;SDS011;10931;52.164;5.518;2023-05-10T03:20:00;1.33;;;0.93;;
21539;SDS011;10931;52.164;5.518;2023-05-10T03:23:04;1.50;;;0.85;;
21539;SDS011;10931;52.164;5.518;2023-05-10T03:25:16;1.45;;;0.90;;
21539;SDS011;10931;52.164;5.518;2023-05-10T03:27:43;1.98;;;1.05;;
21539;SDS011;10931;52.164;5.518;2023-05-10T03:30:10;1.25;;;0.90;;
21539;SDS011;10931;52.164;5.518;2023-05-10T03:32:38;1.35;;;1.10;;
21539;SDS011;10931;52.164;5.518;2023-05-10T03:35:07;1.95;;;1.23;;
21539;SDS011;10931;52.164;5.518;2023-05-10T03:37:37;1.45;;;1.00;;
21539;SDS011;10931;52.164;5.518;2023-05-10T03:40:05;1.13;;;0.90;;
21539;SDS011;10931;52.164;5.518;2023-05-10T03:42:32;1.50;;;1.20;;
21539;SDS011;10931;52.164;5.518;2023-05-10T03:44:57;1.25;;;0.98;;
21539;SDS011;10931;52.164;5.518;2023-05-10T03:47:23;1.60;;;1.10;;
21539;SDS011;10931;52.164;5.518;2023-05-10T03:49:49;1.63;;;1.23;;
21539;SDS011;10931;52.164;5.518;2023-05-10T03:52:14;1.83;;;1.20;;
21539;SDS011;10931;52.164;5.518;2023-05-10T03:54:40;1.02;;;0.90;;
21539;SDS011;10931;52.164;5.518;2023-05-10T03:57:11;1.85;;;1.10;;
21539;SDS011;10931;52.164;5.518;2023-05-10T03:59:37;1.50;;;1.10;;
21539;SDS011;10931;52.164;5.518;2023-05-10T04:02:03;1.25;;;0.98;;
21539;SDS011;10931;52.164;5.518;2023-05-10T04:04:28;1.50;;;1.05;;
21539;SDS011;10931;52.164;5.518;2023-05-10T04:06:54;1.38;;;1.17;;
21539;SDS011;10931;52.164;5.518;2023-05-10T04:09:20;2.58;;;1.35;;
21539;SDS011;10931;52.164;5.518;2023-05-10T04:11:45;1.60;;;1.10;;
21539;SDS011;10931;52.164;5.518;2023-05-10T04:14:11;2.03;;;1.10;;
21539;SDS011;10931;52.164;5.518;2023-05-10T04:16:37;2.22;;;1.40;;
21539;SDS011;10931;52.164;5.518;2023-05-10T04:19:02;2.00;;;1.17;;
21539;SDS011;10931;52.164;5.518;2023-05-10T04:21:29;2.08;;;1.30;;
21539;SDS011;10931;52.164;5.518;2023-05-10T04:23:55;1.45;;;1.08;;
21539;SDS011;10931;52.164;5.518;2023-05-10T04:26:21;1.77;;;1.23;;
21539;SDS011;10931;52.164;5.518;2023-05-10T04:28:48;1.83;;;1.23;;
21539;SDS011;10931;52.164;5.518;2023-05-10T04:31:14;3.38;;;1.45;;
21539;SDS011;10931;52.164;5.518;2023-05-10T04:33:48;2.38;;;1.30;;
21539;SDS011;10931;52.164;5.518;2023-05-10T04:36:15;1.95;;;1.20;;
21539;SDS011;10931;52.164;5.518;2023-05-10T04:38:40;1.83;;;1.30;;
21539;SDS011;10931;52.164;5.518;2023-05-10T04:41:06;1.75;;;1.33;;
21539;SDS011;10931;52.164;5.518;2023-05-10T04:43:33;2.15;;;1.33;;
21539;SDS011;10931;52.164;5.518;2023-05-10T04:46:02;2.88;;;1.50;;
21539;SDS011;10931;52.164;5.518;2023-05-10T04:48:28;2.30;;;1.50;;
21539;SDS011;10931;52.164;5.518;2023-05-10T04:50:53;2.17;;;1.40;;
21539;SDS011;10931;52.164;5.518;2023-05-10T04:53:19;2.28;;;1.60;;
21539;SDS011;10931;52.164;5.518;2023-05-10T04:55:45;2.72;;;1.40;;
21539;SDS011;10931;52.164;5.518;2023-05-10T04:58:11;2.67;;;1.55;;
21539;SDS011;10931;52.164;5.518;2023-05-10T05:00:37;2.28;;;1.48;;
21539;SDS011;10931;52.164;5.518;2023-05-10T05:03:03;2.47;;;1.77;;
21539;SDS011;10931;52.164;5.518;2023-05-10T05:05:28;2.03;;;1.25;;
21539;SDS011;10931;52.164;5.518;2023-05-10T05:07:57;1.60;;;1.23;;
21539;SDS011;10931;52.164;5.518;2023-05-10T05:10:23;1.95;;;1.27;;
21539;SDS011;10931;52.164;5.518;2023-05-10T05:12:48;1.92;;;1.15;;
21539;SDS011;10931;52.164;5.518;2023-05-10T05:15:14;2.70;;;1.23;;
21539;SDS011;10931;52.164;5.518;2023-05-10T05:17:41;2.38;;;1.30;;
21539;SDS011;10931;52.164;5.518;2023-05-10T05:20:07;2.53;;;1.40;;
21539;SDS011;10931;52.164;5.518;2023-05-10T05:22:33;2.67;;;1.45;;
21539;SDS011;10931;52.164;5.518;2023-05-10T05:25:03;2.15;;;1.33;;
21539;SDS011;10931;52.164;5.518;2023-05-10T05:27:30;2.65;;;1.65;;
21539;SDS011;10931;52.164;5.518;2023-05-10T05:29:56;1.95;;;1.40;;
21539;SDS011;10931;52.164;5.518;2023-05-10T05:32:23;2.38;;;1.38;;
21539;SDS011;10931;52.164;5.518;2023-05-10T05:34:49;2.70;;;1.52;;
21539;SDS011;10931;52.164;5.518;2023-05-10T05:37:16;3.42;;;1.65;;
21539;SDS011;10931;52.164;5.518;2023-05-10T05:39:43;2.30;;;1.50;;
21539;SDS011;10931;52.164;5.518;2023-05-10T05:42:10;2.97;;;1.50;;
21539;SDS011;10931;52.164;5.518;2023-05-10T05:44:39;2.90;;;1.70;;
21539;SDS011;10931;52.164;5.518;2023-05-10T05:47:05;2.53;;;1.42;;
21539;SDS011;10931;52.164;5.518;2023-05-10T05:49:31;3.03;;;1.60;;
21539;SDS011;10931;52.164;5.518;2023-05-10T05:52:03;2.85;;;1.90;;
21539;SDS011;10931;52.164;5.518;2023-05-10T05:54:29;2.58;;;1.65;;
21539;SDS011;10931;52.164;5.518;2023-05-10T05:56:56;2.88;;;1.92;;
21539;SDS011;10931;52.164;5.518;2023-05-10T05:59:22;2.65;;;1.58;;
21539;SDS011;10931;52.164;5.518;2023-05-10T06:01:48;2.30;;;1.40;;
21539;SDS011;10931;52.164;5.518;2023-05-10T06:04:14;2.22;;;1.20;;
21539;SDS011;10931;52.164;5.518;2023-05-10T06:06:40;2.20;;;1.83;;
21539;SDS011;10931;52.164;5.518;2023-05-10T06:09:05;2.83;;;1.80;;
21539;SDS011;10931;52.164;5.518;2023-05-10T06:11:31;2.58;;;1.70;;
21539;SDS011;10931;52.164;5.518;2023-05-10T06:13:57;2.40;;;1.67;;
21539;SDS011;10931;52.164;5.518;2023-05-10T06:16:23;2.92;;;1.85;;
21539;SDS011;10931;52.164;5.518;2023-05-10T06:18:49;4.13;;;1.88;;
21539;SDS011;10931;52.164;5.518;2023-05-10T06:21:14;2.80;;;1.92;;
21539;SDS011;10931;52.164;5.518;2023-05-10T06:23:41;3.03;;;1.90;;
21539;SDS011;10931;52.164;5.518;2023-05-10T06:26:07;2.35;;;1.80;;
21539;SDS011;10931;52.164;5.518;2023-05-10T06:28:35;3.17;;;1.58;;
21539;SDS011;10931;52.164;5.518;2023-05-10T06:31:03;3.58;;;2.03;;
21539;SDS011;10931;52.164;5.518;2023-05-10T06:33:29;1.98;;;1.60;;
21539;SDS011;10931;52.164;5.518;2023-05-10T06:35:55;3.72;;;2.28;;
21539;SDS011;10931;52.164;5.518;2023-05-10T06:38:21;2.45;;;1.90;;
21539;SDS011;10931;52.164;5.518;2023-05-10T06:40:46;2.45;;;1.85;;
21539;SDS011;10931;52.164;5.518;2023-05-10T06:43:12;2.88;;;1.90;;
21539;SDS011;10931;52.164;5.518;2023-05-10T06:45:38;4.60;;;1.60;;
21539;SDS011;10931;52.164;5.518;2023-05-10T06:48:04;4.00;;;2.13;;
21539;SDS011;10931;52.164;5.518;2023-05-10T06:50:29;3.42;;;2.28;;
21539;SDS011;10931;52.164;5.518;2023-05-10T06:52:55;2.42;;;1.77;;
21539;SDS011;10931;52.164;5.518;2023-05-10T06:55:21;2.63;;;1.63;;
21539;SDS011;10931;52.164;5.518;2023-05-10T06:57:47;2.60;;;1.83;;
21539;SDS011;10931;52.164;5.518;2023-05-10T07:00:15;2.78;;;1.98;;
21539;SDS011;10931;52.164;5.518;2023-05-10T07:02:41;1.83;;;1.30;;
21539;SDS011;10931;52.164;5.518;2023-05-10T07:05:07;2.20;;;1.50;;
21539;SDS011;10931;52.164;5.518;2023-05-10T07:14:21;2.50;;;1.60;;
21539;SDS011;10931;52.164;5.518;2023-05-10T07:20:10;1.58;;;1.40;;
21539;SDS011;10931;52.164;5.518;2023-05-10T07:22:36;2.53;;;1.58;;
21539;SDS011;10931;52.164;5.518;2023-05-10T07:25:01;2.80;;;1.60;;
21539;SDS011;10931;52.164;5.518;2023-05-10T07:27:27;2.47;;;1.58;;
21539;SDS011;10931;52.164;5.518;2023-05-10T07:29:53;1.92;;;1.35;;
21539;SDS011;10931;52.164;5.518;2023-05-10T07:32:19;2.20;;;1.42;;
21539;SDS011;10931;52.164;5.518;2023-05-10T07:34:45;1.95;;;1.45;;
21539;SDS011;10931;52.164;5.518;2023-05-10T07:37:11;2.05;;;1.50;;
21539;SDS011;10931;52.164;5.518;2023-05-10T07:39:37;1.80;;;1.42;;
21539;SDS011;10931;52.164;5.518;2023-05-10T07:42:02;2.42;;;1.33;;
21539;SDS011;10931;52.164;5.518;2023-05-10T07:44:28;2.67;;;1.50;;
21539;SDS011;10931;52.164;5.518;2023-05-10T07:46:54;2.55;;;1.60;;
21539;SDS011;10931;52.164;5.518;2023-05-10T07:49:20;1.70;;;1.38;;
21539;SDS011;10931;52.164;5.518;2023-05-10T07:51:46;3.30;;;1.58;;
21539;SDS011;10931;52.164;5.518;2023-05-10T07:54:12;2.42;;;1.50;;
21539;SDS011;10931;52.164;5.518;2023-05-10T07:56:39;2.65;;;1.70;;
21539;SDS011;10931;52.164;5.518;2023-05-10T07:59:09;2.15;;;1.50;;
21539;SDS011;10931;52.164;5.518;2023-05-10T08:01:35;1.58;;;1.25;;
21539;SDS011;10931;52.164;5.518;2023-05-10T08:04:01;2.08;;;1.48;;
21539;SDS011;10931;52.164;5.518;2023-05-10T08:06:26;3.53;;;1.63;;
21539;SDS011;10931;52.164;5.518;2023-05-10T08:08:53;2.47;;;1.45;;
21539;SDS011;10931;52.164;5.518;2023-05-10T08:11:19;2.30;;;1.58;;
21539;SDS011;10931;52.164;5.518;2023-05-10T08:13:46;1.60;;;1.20;;
21539;SDS011;10931;52.164;5.518;2023-05-10T08:16:13;1.80;;;1.48;;
21539;SDS011;10931;52.164;5.518;2023-05-10T08:18:38;3.00;;;1.42;;
21539;SDS011;10931;52.164;5.518;2023-05-10T08:21:04;1.88;;;1.45;;
21539;SDS011;10931;52.164;5.518;2023-05-10T08:23:31;1.67;;;1.15;;
21539;SDS011;10931;52.164;5.518;2023-05-10T08:25:56;1.30;;;1.08;;
21539;SDS011;10931;52.164;5.518;2023-05-10T08:28:22;1.60;;;1.30;;
21539;SDS011;10931;52.164;5.518;2023-05-10T08:30:49;1.92;;;1.33;;
21539;SDS011;10931;52.164;5.518;2023-05-10T08:33:15;1.75;;;1.30;;
21539;SDS011;10931;52.164;5.518;2023-05-10T08:35:42;1.55;;;1.10;;
21539;SDS011;10931;52.164;5.518;2023-05-10T08:38:07;2.33;;;1.52;;
21539;SDS011;10931;52.164;5.518;2023-05-10T08:40:36;2.22;;;1.60;;
21539;SDS011;10931;52.164;5.518;2023-05-10T08:45:32;1.65;;;1.40;;
21539;SDS011;10931;52.164;5.518;2023-05-10T08:48:08;1.38;;;1.25;;
21539;SDS011;10931;52.164;5.518;2023-05-10T08:50:39;3.10;;;1.67;;
21539;SDS011;10931;52.164;5.518;2023-05-10T08:53:06;2.25;;;1.60;;
21539;SDS011;10931;52.164;5.518;2023-05-10T08:55:34;1.65;;;1.40;;
21539;SDS011;10931;52.164;5.518;2023-05-10T08:58:03;2.35;;;1.63;;
21539;SDS011;10931;52.164;5.518;2023-05-10T09:00:29;1.50;;;1.23;;
21539;SDS011;10931;52.164;5.518;2023-05-10T09:02:55;1.92;;;1.45;;
21539;SDS011;10931;52.164;5.518;2023-05-10T09:05:22;2.45;;;1.75;;
21539;SDS011;10931;52.164;5.518;2023-05-10T09:07:48;1.77;;;1.38;;
21539;SDS011;10931;52.164;5.518;2023-05-10T09:10:14;1.73;;;1.25;;
21539;SDS011;10931;52.164;5.518;2023-05-10T09:12:40;2.72;;;1.50;;
21539;SDS011;10931;52.164;5.518;2023-05-10T09:15:06;1.95;;;1.42;;
21539;SDS011;10931;52.164;5.518;2023-05-10T09:17:37;1.48;;;1.10;;
21539;SDS011;10931;52.164;5.518;2023-05-10T09:20:04;1.67;;;1.27;;
21539;SDS011;10931;52.164;5.518;2023-05-10T09:22:31;1.73;;;1.10;;
21539;SDS011;10931;52.164;5.518;2023-05-10T09:27:33;1.85;;;1.38;;
21539;SDS011;10931;52.164;5.518;2023-05-10T09:29:59;1.85;;;1.23;;
21539;SDS011;10931;52.164;5.518;2023-05-10T09:32:38;1.73;;;1.17;;
21539;SDS011;10931;52.164;5.518;2023-05-10T09:35:08;1.92;;;1.35;;
21539;SDS011;10931;52.164;5.518;2023-05-10T09:37:35;1.83;;;1.50;;
21539;SDS011;10931;52.164;5.518;2023-05-10T09:40:04;1.77;;;1.25;;
21539;SDS011;10931;52.164;5.518;2023-05-10T09:42:31;1.52;;;1.30;;
21539;SDS011;10931;52.164;5.518;2023-05-10T09:45:00;1.63;;;1.30;;
21539;SDS011;10931;52.164;5.518;2023-05-10T09:47:27;1.88;;;1.35;;
21539;SDS011;10931;52.164;5.518;2023-05-10T09:49:53;1.15;;;1.02;;
21539;SDS011;10931;52.164;5.518;2023-05-10T09:52:22;2.33;;;1.30;;
21539;SDS011;10931;52.164;5.518;2023-05-10T09:54:54;1.92;;;1.40;;
21539;SDS011;10931;52.164;5.518;2023-05-10T09:57:20;1.10;;;1.00;;
21539;SDS011;10931;52.164;5.518;2023-05-10T09:59:47;1.58;;;1.30;;
21539;SDS011;10931;52.164;5.518;2023-05-10T10:02:13;1.30;;;1.17;;
21539;SDS011;10931;52.164;5.518;2023-05-10T10:04:39;1.60;;;1.30;;
21539;SDS011;10931;52.164;5.518;2023-05-10T10:07:05;1.70;;;1.15;;
21539;SDS011;10931;52.164;5.518;2023-05-10T10:09:32;1.10;;;0.90;;
21539;SDS011;10931;52.164;5.518;2023-05-10T10:11:59;1.20;;;1.10;;
21539;SDS011;10931;52.164;5.518;2023-05-10T10:14:25;1.75;;;1.27;;
21539;SDS011;10931;52.164;5.518;2023-05-10T10:16:53;1.35;;;1.00;;
21539;SDS011;10931;52.164;5.518;2023-05-10T10:19:19;1.70;;;1.20;;
21539;SDS011;10931;52.164;5.518;2023-05-10T10:21:48;1.42;;;1.10;;
21539;SDS011;10931;52.164;5.518;2023-05-10T10:24:14;1.45;;;1.20;;
21539;SDS011;10931;52.164;5.518;2023-05-10T10:26:41;1.25;;;1.15;;
21539;SDS011;10931;52.164;5.518;2023-05-10T10:35:02;2.60;;;1.05;;
21539;SDS011;10931;52.164;5.518;2023-05-10T10:37:45;1.60;;;1.20;;
21539;SDS011;10931;52.164;5.518;2023-05-10T10:40:30;1.25;;;1.00;;
21539;SDS011;10931;52.164;5.518;2023-05-10T10:42:58;1.17;;;0.85;;
21539;SDS011;10931;52.164;5.518;2023-05-10T10:46:34;1.65;;;1.00;;
21539;SDS011;10931;52.164;5.518;2023-05-10T10:48:47;1.80;;;0.98;;
21539;SDS011;10931;52.164;5.518;2023-05-10T10:51:14;1.20;;;0.90;;
21539;SDS011;10931;52.164;5.518;2023-05-10T10:53:40;1.38;;;1.02;;
21539;SDS011;10931;52.164;5.518;2023-05-10T10:56:07;1.27;;;0.90;;
21539;SDS011;10931;52.164;5.518;2023-05-10T10:58:34;1.17;;;0.93;;
21539;SDS011;10931;52.164;5.518;2023-05-10T11:03:40;0.75;;;0.75;;
21539;SDS011;10931;52.164;5.518;2023-05-10T11:06:28;1.35;;;1.00;;
21539;SDS011;10931;52.164;5.518;2023-05-10T11:08:56;3.33;;;1.20;;
21539;SDS011;10931;52.164;5.518;2023-05-10T11:11:22;1.60;;;1.10;;
21539;SDS011;10931;52.164;5.518;2023-05-10T11:13:48;1.20;;;1.00;;
21539;SDS011;10931;52.164;5.518;2023-05-10T11:18:51;1.20;;;0.90;;
21539;SDS011;10931;52.164;5.518;2023-05-10T11:21:18;1.20;;;1.00;;
21539;SDS011;10931;52.164;5.518;2023-05-10T11:26:16;1.13;;;0.90;;
21539;SDS011;10931;52.164;5.518;2023-05-10T11:28:49;1.05;;;0.90;;
21539;SDS011;10931;52.164;5.518;2023-05-10T11:31:18;1.52;;;1.00;;
21539;SDS011;10931;52.164;5.518;2023-05-10T11:33:48;1.30;;;0.80;;
21539;SDS011;10931;52.164;5.518;2023-05-10T11:36:19;1.20;;;0.90;;
21539;SDS011;10931;52.164;5.518;2023-05-10T11:38:47;1.60;;;0.90;;
21539;SDS011;10931;52.164;5.518;2023-05-10T11:41:13;1.00;;;0.90;;
21539;SDS011;10931;52.164;5.518;2023-05-10T11:43:41;1.25;;;0.95;;
21539;SDS011;10931;52.164;5.518;2023-05-10T11:46:09;1.48;;;1.17;;
21539;SDS011;10931;52.164;5.518;2023-05-10T11:48:37;1.25;;;1.00;;
21539;SDS011;10931;52.164;5.518;2023-05-10T11:51:04;1.15;;;1.00;;
21539;SDS011;10931;52.164;5.518;2023-05-10T11:53:31;1.17;;;0.90;;
21539;SDS011;10931;52.164;5.518;2023-05-10T11:56:04;0.98;;;0.90;;
21539;SDS011;10931;52.164;5.518;2023-05-10T11:58:34;1.25;;;1.05;;
21539;SDS011;10931;52.164;5.518;2023-05-10T12:01:01;1.10;;;0.85;;
21539;SDS011;10931;52.164;5.518;2023-05-10T12:03:28;0.88;;;0.75;;
21539;SDS011;10931;52.164;5.518;2023-05-10T12:05:57;1.42;;;1.02;;
21539;SDS011;10931;52.164;5.518;2023-05-10T12:08:27;0.95;;;0.80;;
21539;SDS011;10931;52.164;5.518;2023-05-10T12:11:03;1.30;;;0.98;;
21539;SDS011;10931;52.164;5.518;2023-05-10T12:13:31;1.30;;;0.90;;
21539;SDS011;10931;52.164;5.518;2023-05-10T12:15:57;1.13;;;1.00;;
21539;SDS011;10931;52.164;5.518;2023-05-10T12:18:23;1.17;;;0.90;;
21539;SDS011;10931;52.164;5.518;2023-05-10T12:20:51;1.45;;;0.82;;
21539;SDS011;10931;52.164;5.518;2023-05-10T12:23:20;1.52;;;1.00;;
21539;SDS011;10931;52.164;5.518;2023-05-10T12:25:46;1.23;;;0.90;;
21539;SDS011;10931;52.164;5.518;2023-05-10T12:28:12;1.17;;;0.85;;
21539;SDS011;10931;52.164;5.518;2023-05-10T12:30:38;0.93;;;0.70;;
21539;SDS011;10931;52.164;5.518;2023-05-10T12:33:08;1.38;;;1.27;;
21539;SDS011;10931;52.164;5.518;2023-05-10T12:35:48;1.67;;;0.95;;
21539;SDS011;10931;52.164;5.518;2023-05-10T12:38:25;1.23;;;1.08;;
21539;SDS011;10931;52.164;5.518;2023-05-10T12:40:54;1.50;;;0.80;;
21539;SDS011;10931;52.164;5.518;2023-05-10T12:43:21;1.40;;;0.98;;
21539;SDS011;10931;52.164;5.518;2023-05-10T12:45:47;1.08;;;0.90;;
21539;SDS011;10931;52.164;5.518;2023-05-10T12:48:14;1.10;;;0.88;;
21539;SDS011;10931;52.164;5.518;2023-05-10T12:50:40;1.48;;;1.00;;
21539;SDS011;10931;52.164;5.518;2023-05-10T12:53:06;2.10;;;1.00;;
21539;SDS011;10931;52.164;5.518;2023-05-10T12:55:31;1.77;;;1.15;;
21539;SDS011;10931;52.164;5.518;2023-05-10T12:57:57;1.15;;;0.90;;
21539;SDS011;10931;52.164;5.518;2023-05-10T13:00:23;2.17;;;0.80;;
21539;SDS011;10931;52.164;5.518;2023-05-10T13:02:48;1.13;;;1.02;;
21539;SDS011;10931;52.164;5.518;2023-05-10T13:05:14;0.90;;;0.80;;
21539;SDS011;10931;52.164;5.518;2023-05-10T13:07:40;0.85;;;0.65;;
21539;SDS011;10931;52.164;5.518;2023-05-10T13:10:06;0.90;;;0.80;;
21539;SDS011;10931;52.164;5.518;2023-05-10T13:12:32;1.50;;;0.90;;
21539;SDS011;10931;52.164;5.518;2023-05-10T13:14:58;1.17;;;0.82;;
21539;SDS011;10931;52.164;5.518;2023-05-10T13:17:24;2.00;;;0.90;;
21539;SDS011;10931;52.164;5.518;2023-05-10T13:19:50;0.95;;;0.77;;
21539;SDS011;10931;52.164;5.518;2023-05-10T13:22:16;0.82;;;0.70;;
21539;SDS011;10931;52.164;5.518;2023-05-10T13:24:42;0.60;;;0.60;;
21539;SDS011;10931;52.164;5.518;2023-05-10T13:27:08;1.15;;;0.70;;
21539;SDS011;10931;52.164;5.518;2023-05-10T13:29:33;0.85;;;0.75;;
21539;SDS011;10931;52.164;5.518;2023-05-10T13:31:59;0.98;;;0.77;;
21539;SDS011;10931;52.164;5.518;2023-05-10T13:34:25;1.20;;;0.80;;
21539;SDS011;10931;52.164;5.518;2023-05-10T13:36:51;1.02;;;0.80;;
21539;SDS011;10931;52.164;5.518;2023-05-10T13:39:18;1.52;;;0.88;;
21539;SDS011;10931;52.164;5.518;2023-05-10T13:41:45;0.95;;;0.70;;
21539;SDS011;10931;52.164;5.518;2023-05-10T13:44:14;0.60;;;0.60;;
21539;SDS011;10931;52.164;5.518;2023-05-10T13:46:44;1.08;;;0.70;;
21539;SDS011;10931;52.164;5.518;2023-05-10T13:49:10;1.20;;;0.73;;
21539;SDS011;10931;52.164;5.518;2023-05-10T13:51:38;0.98;;;0.77;;
21539;SDS011;10931;52.164;5.518;2023-05-10T13:54:04;1.88;;;0.90;;
21539;SDS011;10931;52.164;5.518;2023-05-10T13:56:30;1.35;;;0.70;;
21539;SDS011;10931;52.164;5.518;2023-05-10T13:58:56;1.20;;;0.80;;
21539;SDS011;10931;52.164;5.518;2023-05-10T14:01:23;0.98;;;0.70;;
21539;SDS011;10931;52.164;5.518;2023-05-10T14:03:49;0.90;;;0.70;;
21539;SDS011;10931;52.164;5.518;2023-05-10T14:06:21;0.90;;;0.80;;
21539;SDS011;10931;52.164;5.518;2023-05-10T14:08:49;0.95;;;0.85;;
21539;SDS011;10931;52.164;5.518;2023-05-10T14:11:15;2.50;;;0.68;;
21539;SDS011;10931;52.164;5.518;2023-05-10T14:13:41;2.47;;;0.93;;
21539;SDS011;10931;52.164;5.518;2023-05-10T14:16:07;0.85;;;0.70;;
21539;SDS011;10931;52.164;5.518;2023-05-10T14:18:33;0.70;;;0.63;;
21539;SDS011;10931;52.164;5.518;2023-05-10T14:20:59;2.42;;;0.70;;
21539;SDS011;10931;52.164;5.518;2023-05-10T14:23:24;1.10;;;0.73;;
21539;SDS011;10931;52.164;5.518;2023-05-10T14:25:51;1.52;;;0.68;;
21539;SDS011;10931;52.164;5.518;2023-05-10T14:28:17;0.77;;;0.73;;
21539;SDS011;10931;52.164;5.518;2023-05-10T14:30:43;1.35;;;0.80;;
21539;SDS011;10931;52.164;5.518;2023-05-10T14:33:09;1.52;;;0.80;;
21539;SDS011;10931;52.164;5.518;2023-05-10T14:35:44;0.77;;;0.60;;
21539;SDS011;10931;52.164;5.518;2023-05-10T14:38:11;1.13;;;0.70;;
21539;SDS011;10931;52.164;5.518;2023-05-10T14:40:37;0.73;;;0.60;;
21539;SDS011;10931;52.164;5.518;2023-05-10T14:43:03;0.70;;;0.57;;
21539;SDS011;10931;52.164;5.518;2023-05-10T14:45:29;1.00;;;0.80;;
21539;SDS011;10931;52.164;5.518;2023-05-10T14:47:56;2.45;;;0.70;;
21539;SDS011;10931;52.164;5.518;2023-05-10T14:50:22;1.80;;;0.80;;
21539;SDS011;10931;52.164;5.518;2023-05-10T14:52:48;2.65;;;0.88;;
21539;SDS011;10931;52.164;5.518;2023-05-10T14:55:25;0.90;;;0.80;;
21539;SDS011;10931;52.164;5.518;2023-05-10T14:57:50;0.82;;;0.60;;
21539;SDS011;10931;52.164;5.518;2023-05-10T15:00:16;1.10;;;0.88;;
21539;SDS011;10931;52.164;5.518;2023-05-10T15:02:44;1.00;;;0.65;;
21539;SDS011;10931;52.164;5.518;2023-05-10T15:05:19;0.57;;;0.57;;
21539;SDS011;10931;52.164;5.518;2023-05-10T15:07:44;1.15;;;0.80;;
21539;SDS011;10931;52.164;5.518;2023-05-10T15:10:10;0.95;;;0.70;;
21539;SDS011;10931;52.164;5.518;2023-05-10T15:12:37;1.17;;;0.80;;
21539;SDS011;10931;52.164;5.518;2023-05-10T15:15:03;1.25;;;0.85;;
21539;SDS011;10931;52.164;5.518;2023-05-10T15:17:33;0.93;;;0.63;;
21539;SDS011;10931;52.164;5.518;2023-05-10T15:20:02;1.30;;;0.90;;
21539;SDS011;10931;52.164;5.518;2023-05-10T15:22:31;0.82;;;0.70;;
21539;SDS011;10931;52.164;5.518;2023-05-10T15:24:57;1.33;;;0.80;;
21539;SDS011;10931;52.164;5.518;2023-05-10T15:27:24;1.27;;;0.82;;
21539;SDS011;10931;52.164;5.518;2023-05-10T16:07:05;1.38;;;0.90;;
21539;SDS011;10931;52.164;5.518;2023-05-10T16:09:34;1.10;;;0.88;;